createdAt,value
2022-10-11T00:00:00.624Z,101676.72
2022-10-11T00:00:31.060Z,101677.73
2022-10-11T00:01:01.555Z,101682.11
2022-10-11T00:01:32.056Z,101682.61
2022-10-11T00:02:02.471Z,101683.95
2022-10-11T00:02:32.925Z,101685.80
2022-10-11T00:03:03.352Z,101683.61
2022-10-11T00:03:33.773Z,101686.81
2022-10-11T00:04:04.193Z,101686.98
2022-10-11T00:04:34.645Z,101690.99
2022-10-11T00:05:05.068Z,101689.48
2022-10-11T00:05:35.493Z,101689.66
2022-10-11T00:06:06.626Z,101688.81
2022-10-11T00:06:37.367Z,101688.64
2022-10-11T00:07:07.797Z,101688.98
2022-10-11T00:07:38.218Z,101692.17
2022-10-11T00:08:08.640Z,101695.72
2022-10-11T00:08:39.065Z,101691.86
2022-10-11T00:09:09.488Z,101693.55
2022-10-11T00:09:39.929Z,101696.89
2022-10-11T00:10:10.352Z,101698.05
2022-10-11T00:10:40.787Z,101698.06
2022-10-11T00:11:11.207Z,101697.88
2022-10-11T00:11:41.634Z,101695.23
2022-10-11T00:12:12.059Z,101700.23
2022-10-11T00:12:42.490Z,101704.94
2022-10-11T00:13:12.917Z,101702.44
2022-10-11T00:13:43.343Z,101704.44
2022-10-11T00:14:13.788Z,101703.96
2022-10-11T00:14:44.301Z,101708.49
2022-10-11T00:15:14.724Z,101712.02
2022-10-11T00:15:45.145Z,101707.82
2022-10-11T00:16:15.581Z,101710.36
2022-10-11T00:16:45.996Z,101711.69
2022-10-11T00:17:16.425Z,101713.20
2022-10-11T00:17:46.852Z,101713.03
2022-10-11T00:18:17.290Z,101716.88
2022-10-11T00:18:47.714Z,101715.05
2022-10-11T00:19:18.131Z,101715.55
2022-10-11T00:19:48.570Z,101717.40
2022-10-11T00:20:18.990Z,101719.73
2022-10-11T00:20:49.413Z,101720.74
2022-10-11T00:21:19.835Z,101722.61
2022-10-11T00:21:50.260Z,101721.27
2022-10-11T00:22:20.684Z,101726.44
2022-10-11T00:22:51.114Z,101727.95
2022-10-11T00:23:21.528Z,101726.81
2022-10-11T00:23:51.952Z,101731.50
2022-10-11T00:24:22.380Z,101727.48
2022-10-11T00:24:52.831Z,101734.18
2022-10-11T00:25:23.251Z,101730.00
2022-10-11T00:25:53.699Z,101732.02
2022-10-11T00:26:24.118Z,101730.66
2022-10-11T00:26:54.545Z,101732.69
2022-10-11T00:27:24.963Z,101736.89
2022-10-11T00:27:55.385Z,101735.20
2022-10-11T00:28:25.838Z,101735.20
2022-10-11T00:28:56.316Z,101737.39
2022-10-11T00:29:26.746Z,101739.23
2022-10-11T00:29:57.171Z,101740.90
2022-10-11T00:30:27.597Z,101739.74
2022-10-11T00:30:58.019Z,101741.42
2022-10-11T00:31:33.303Z,101744.77
2022-10-11T00:32:03.771Z,101746.28
2022-10-11T00:32:34.195Z,101743.94
2022-10-11T00:33:04.622Z,101743.43
2022-10-11T00:33:35.055Z,101743.75
2022-10-11T00:34:05.474Z,101745.45
2022-10-11T00:34:35.896Z,101746.77
2022-10-11T00:35:06.337Z,101748.80
2022-10-11T00:35:36.759Z,101750.00
2022-10-11T00:36:07.881Z,101746.12
2022-10-11T00:36:38.671Z,101743.94
2022-10-11T00:37:09.092Z,101747.44
2022-10-11T00:37:39.514Z,101744.09
2022-10-11T00:38:09.949Z,101747.14
2022-10-11T00:38:40.375Z,101750.14
2022-10-11T00:39:10.789Z,101752.67
2022-10-11T00:39:41.209Z,101749.49
2022-10-11T00:40:11.664Z,101749.16
2022-10-11T00:40:42.081Z,101752.02
2022-10-11T00:41:12.504Z,101750.50
2022-10-11T00:41:42.937Z,101752.02
2022-10-11T00:42:13.364Z,101750.50
2022-10-11T00:42:43.791Z,101752.17
2022-10-11T00:43:14.213Z,101748.31
2022-10-11T00:43:44.644Z,101753.51
2022-10-11T00:44:15.072Z,101751.17
2022-10-11T00:44:45.522Z,101755.17
2022-10-11T00:45:15.945Z,101750.66
2022-10-11T00:45:46.369Z,101755.70
2022-10-11T00:46:16.801Z,101755.37
2022-10-11T00:46:47.227Z,101754.36
2022-10-11T00:47:17.651Z,101754.86
2022-10-11T00:47:48.087Z,101754.17
2022-10-11T00:48:18.519Z,101758.55
2022-10-11T00:48:48.947Z,101759.06
2022-10-11T00:49:19.369Z,101760.58
2022-10-11T00:49:49.791Z,101757.70
2022-10-11T00:50:20.231Z,101757.70
2022-10-11T00:50:50.656Z,101763.08
2022-10-11T00:51:21.090Z,101764.44
2022-10-11T00:51:51.514Z,101762.09
2022-10-11T00:52:21.935Z,101759.57
2022-10-11T00:52:52.363Z,101763.94
2022-10-11T00:53:22.778Z,101765.27
2022-10-11T00:53:53.199Z,101767.64
2022-10-11T00:54:23.624Z,101766.45
2022-10-11T00:54:54.047Z,101767.78
2022-10-11T00:55:24.488Z,101770.66
2022-10-11T00:55:54.921Z,101766.97
2022-10-11T00:56:25.355Z,101765.80
2022-10-11T00:56:55.778Z,101767.14
2022-10-11T00:57:26.205Z,101772.00
2022-10-11T00:57:56.627Z,101771.33
2022-10-11T00:58:27.124Z,101772.50
2022-10-11T00:58:57.490Z,101777.36
2022-10-11T00:59:27.915Z,101771.66
2022-10-11T00:59:58.357Z,101772.00
2022-10-11T01:00:29.217Z,101769.66
2022-10-11T01:00:59.677Z,101774.66
2022-10-11T01:01:30.131Z,101773.69
2022-10-11T01:02:00.549Z,101772.67
2022-10-11T01:02:30.973Z,101774.50
2022-10-11T01:03:01.411Z,101774.52
2022-10-11T01:03:31.846Z,101775.86
2022-10-11T01:04:02.268Z,101772.67
2022-10-11T01:04:32.688Z,101774.19
2022-10-11T01:05:27.576Z,101774.19
2022-10-11T01:05:38.464Z,101774.69
2022-10-11T01:06:09.106Z,101776.88
2022-10-11T01:06:39.543Z,101776.36
2022-10-11T01:07:09.969Z,101774.19
2022-10-11T01:07:40.386Z,101775.02
2022-10-11T01:08:10.812Z,101775.02
2022-10-11T01:08:41.234Z,101773.52
2022-10-11T01:09:11.656Z,101775.20
2022-10-11T01:09:42.080Z,101780.22
2022-10-11T01:10:12.504Z,101778.72
2022-10-11T01:10:42.977Z,101780.06
2022-10-11T01:11:13.404Z,101781.05
2022-10-11T01:11:43.827Z,101783.26
2022-10-11T01:12:14.249Z,101779.88
2022-10-11T01:12:44.676Z,101783.75
2022-10-11T01:13:15.110Z,101783.76
2022-10-11T01:13:45.540Z,101782.73
2022-10-11T01:14:15.962Z,101786.78
2022-10-11T01:14:46.385Z,101787.31
2022-10-11T01:15:16.830Z,101785.97
2022-10-11T01:15:47.265Z,101784.11
2022-10-11T01:16:17.684Z,101787.12
2022-10-11T01:16:48.114Z,101786.29
2022-10-11T01:17:18.535Z,101786.81
2022-10-11T01:17:48.954Z,101787.48
2022-10-11T01:18:19.376Z,101791.82
2022-10-11T01:18:49.801Z,101792.02
2022-10-11T01:19:20.225Z,101789.30
2022-10-11T01:19:50.654Z,101791.33
2022-10-11T01:20:21.079Z,101790.98
2022-10-11T01:20:51.518Z,101791.48
2022-10-11T01:21:21.945Z,101798.05
2022-10-11T01:21:52.366Z,101795.55
2022-10-11T01:22:22.801Z,101797.23
2022-10-11T01:22:53.222Z,101796.02
2022-10-11T01:23:23.660Z,101799.39
2022-10-11T01:23:54.090Z,101796.05
2022-10-11T01:24:24.517Z,101792.00
2022-10-11T01:24:54.949Z,101796.55
2022-10-11T01:25:25.373Z,101796.70
2022-10-11T01:25:55.809Z,101796.86
2022-10-11T01:26:26.238Z,101794.35
2022-10-11T01:26:56.670Z,101796.86
2022-10-11T01:27:27.092Z,101795.02
2022-10-11T01:27:57.522Z,101795.70
2022-10-11T01:28:28.025Z,101796.55
2022-10-11T01:28:58.507Z,101799.41
2022-10-11T01:29:28.880Z,101800.57
2022-10-11T01:29:59.305Z,101796.72
2022-10-11T01:30:29.752Z,101798.75
2022-10-11T01:31:00.174Z,101798.73
2022-10-11T01:31:30.599Z,101798.92
2022-10-11T01:32:01.022Z,101798.21
2022-10-11T01:32:31.445Z,101805.45
2022-10-11T01:33:01.870Z,101804.11
2022-10-11T01:33:32.291Z,101804.97
2022-10-11T01:34:02.718Z,101808.65
2022-10-11T01:34:33.231Z,101803.95
2022-10-11T01:35:03.708Z,101807.96
2022-10-11T01:35:34.123Z,101808.48
2022-10-11T01:36:04.900Z,101806.78
2022-10-11T01:36:35.457Z,101805.95
2022-10-11T01:37:05.911Z,101809.46
2022-10-11T01:37:36.342Z,101810.30
2022-10-11T01:38:06.772Z,101806.27
2022-10-11T01:38:37.191Z,101807.11
2022-10-11T01:39:08.054Z,101805.09
2022-10-11T01:39:38.476Z,101809.80
2022-10-11T01:40:08.909Z,101812.31
2022-10-11T01:40:39.329Z,101808.78
2022-10-11T01:41:09.778Z,101810.82
2022-10-11T01:41:40.207Z,101811.84
2022-10-11T01:42:10.633Z,101809.98
2022-10-11T01:42:41.060Z,101812.50
2022-10-11T01:43:11.477Z,101809.66
2022-10-11T01:43:41.896Z,101811.84
2022-10-11T01:44:12.329Z,101811.50
2022-10-11T01:44:42.753Z,101810.66
2022-10-11T01:45:13.182Z,101814.34
2022-10-11T01:45:43.636Z,101812.36
2022-10-11T01:46:14.050Z,101811.52
2022-10-11T01:46:44.475Z,101811.50
2022-10-11T01:47:14.910Z,101813.17
2022-10-11T01:47:45.344Z,101812.50
2022-10-11T01:48:15.760Z,101814.36
2022-10-11T01:48:46.186Z,101811.70
2022-10-11T01:49:16.611Z,101812.70
2022-10-11T01:49:47.031Z,101815.55
2022-10-11T01:50:17.452Z,101813.54
2022-10-11T01:50:47.877Z,101817.56
2022-10-11T01:51:18.368Z,101812.18
2022-10-11T01:51:48.790Z,101809.14
2022-10-11T01:52:19.226Z,101816.70
2022-10-11T01:52:49.664Z,101814.86
2022-10-11T01:53:20.091Z,101815.19
2022-10-11T01:53:50.518Z,101814.86
2022-10-11T01:54:20.940Z,101814.19
2022-10-11T01:55:08.748Z,101816.69
2022-10-11T01:55:26.693Z,101816.38
2022-10-11T01:55:57.114Z,101813.20
2022-10-11T01:56:27.567Z,101816.55
2022-10-11T01:56:57.997Z,101815.87
2022-10-11T01:57:28.423Z,101816.54
2022-10-11T01:57:58.849Z,101816.39
2022-10-11T01:58:29.273Z,101814.02
2022-10-11T01:58:59.694Z,101813.36
2022-10-11T01:59:30.115Z,101818.06
2022-10-11T02:00:00.537Z,101817.89
2022-10-11T02:00:30.966Z,101816.91
2022-10-11T02:01:01.528Z,101818.39
2022-10-11T02:01:32.029Z,101817.55
2022-10-11T02:02:02.438Z,101821.59
2022-10-11T02:02:32.857Z,101821.23
2022-10-11T02:03:03.288Z,101822.25
2022-10-11T02:03:33.705Z,101824.28
2022-10-11T02:04:04.127Z,101824.45
2022-10-11T02:04:34.551Z,101823.45
2022-10-11T02:05:04.975Z,101822.92
2022-10-11T02:05:35.408Z,101823.45
2022-10-11T02:06:06.353Z,101826.64
2022-10-11T02:06:37.024Z,101827.64
2022-10-11T02:07:07.451Z,101826.12
2022-10-11T02:07:37.891Z,101828.32
2022-10-11T02:08:08.315Z,101825.97
2022-10-11T02:08:38.745Z,101830.48
2022-10-11T02:09:09.170Z,101831.69
2022-10-11T02:09:39.602Z,101828.80
2022-10-11T02:10:10.026Z,101831.31
2022-10-11T02:10:40.442Z,101830.48
2022-10-11T02:11:10.889Z,101829.48
2022-10-11T02:11:41.323Z,101830.33
2022-10-11T02:12:11.756Z,101831.32
2022-10-11T02:12:42.178Z,101833.51
2022-10-11T02:13:12.601Z,101835.20
2022-10-11T02:13:43.021Z,101833.84
2022-10-11T02:14:13.456Z,101832.02
2022-10-11T02:14:43.885Z,101834.84
2022-10-11T02:15:14.321Z,101835.55
2022-10-11T02:15:44.741Z,101836.55
2022-10-11T02:16:15.184Z,101835.04
2022-10-11T02:16:45.621Z,101838.05
2022-10-11T02:17:16.054Z,101839.73
2022-10-11T02:17:46.471Z,101839.38
2022-10-11T02:18:16.904Z,101843.25
2022-10-11T02:18:47.327Z,101837.70
2022-10-11T02:19:17.752Z,101840.92
2022-10-11T02:19:48.180Z,101840.58
2022-10-11T02:20:18.638Z,101841.24
2022-10-11T02:20:49.081Z,101843.25
2022-10-11T02:21:19.513Z,101839.91
2022-10-11T02:21:49.958Z,101840.25
2022-10-11T02:22:20.385Z,101838.72
2022-10-11T02:22:50.826Z,101843.25
2022-10-11T02:23:21.246Z,101842.77
2022-10-11T02:23:51.673Z,101841.25
2022-10-11T02:24:22.092Z,101843.93
2022-10-11T02:24:52.519Z,101841.75
2022-10-11T02:25:22.951Z,101845.27
2022-10-11T02:25:53.364Z,101847.11
2022-10-11T02:26:23.791Z,101840.39
2022-10-11T02:26:54.241Z,101841.08
2022-10-11T02:27:24.674Z,101846.44
2022-10-11T02:27:55.083Z,101843.08
2022-10-11T02:28:25.583Z,101847.97
2022-10-11T02:28:56.114Z,101845.43
2022-10-11T02:29:26.546Z,101840.73
2022-10-11T02:29:56.984Z,101843.92
2022-10-11T02:30:27.407Z,101844.76
2022-10-11T02:30:57.836Z,101842.25
2022-10-11T02:31:28.281Z,101844.44
2022-10-11T02:31:58.705Z,101845.78
2022-10-11T02:32:29.160Z,101840.39
2022-10-11T02:32:59.583Z,101846.62
2022-10-11T02:33:30.007Z,101842.41
2022-10-11T02:34:00.431Z,101847.14
2022-10-11T02:34:30.852Z,101846.46
2022-10-11T02:35:01.288Z,101849.47
2022-10-11T02:35:31.708Z,101846.94
2022-10-11T02:36:02.490Z,101845.43
2022-10-11T02:36:33.215Z,101849.30
2022-10-11T02:37:03.658Z,101845.10
2022-10-11T02:37:34.099Z,101845.27
2022-10-11T02:38:04.524Z,101849.47
2022-10-11T02:38:34.946Z,101846.62
2022-10-11T02:39:05.375Z,101851.83
2022-10-11T02:39:35.794Z,101848.80
2022-10-11T02:40:06.222Z,101848.80
2022-10-11T02:40:36.651Z,101847.28
2022-10-11T02:41:07.077Z,101847.44
2022-10-11T02:41:37.496Z,101848.28
2022-10-11T02:42:07.945Z,101850.97
2022-10-11T02:42:38.366Z,101850.16
2022-10-11T02:43:08.794Z,101850.64
2022-10-11T02:43:39.213Z,101850.31
2022-10-11T02:44:09.644Z,101854.70
2022-10-11T02:44:40.081Z,101853.02
2022-10-11T02:45:10.502Z,101854.34
2022-10-11T02:45:40.936Z,101855.34
2022-10-11T02:46:11.372Z,101854.70
2022-10-11T02:46:41.812Z,101855.20
2022-10-11T02:47:12.241Z,101854.86
2022-10-11T02:47:42.667Z,101855.54
2022-10-11T02:48:13.095Z,101855.69
2022-10-11T02:48:43.521Z,101864.95
2022-10-11T02:49:13.942Z,101856.38
2022-10-11T02:49:44.363Z,101859.57
2022-10-11T02:50:14.783Z,101862.27
2022-10-11T02:50:45.204Z,101861.09
2022-10-11T02:51:15.657Z,101859.41
2022-10-11T02:51:46.077Z,101859.91
2022-10-11T02:52:16.540Z,101862.08
2022-10-11T02:52:46.957Z,101858.22
2022-10-11T02:53:17.379Z,101859.09
2022-10-11T02:53:47.819Z,101858.25
2022-10-11T02:54:18.243Z,101856.73
2022-10-11T02:54:48.672Z,101863.44
2022-10-11T02:55:19.105Z,101861.56
2022-10-11T02:55:49.513Z,101859.73
2022-10-11T02:56:19.938Z,101857.88
2022-10-11T02:56:50.360Z,101859.57
2022-10-11T02:57:20.807Z,101859.73
2022-10-11T02:57:51.226Z,101860.40
2022-10-11T02:58:21.649Z,101860.06
2022-10-11T02:58:52.071Z,101859.24
2022-10-11T02:59:22.495Z,101864.78
2022-10-11T02:59:52.919Z,101862.58
2022-10-11T03:00:23.340Z,101861.58
2022-10-11T03:00:53.764Z,101860.58
2022-10-11T03:01:24.206Z,101864.26
2022-10-11T03:01:54.765Z,101861.73
2022-10-11T03:02:25.248Z,101862.75
2022-10-11T03:02:55.673Z,101865.11
2022-10-11T03:03:26.101Z,101866.45
2022-10-11T03:03:56.523Z,101867.98
2022-10-11T03:04:26.946Z,101867.29
2022-10-11T03:04:57.369Z,101868.62
2022-10-11T03:05:27.792Z,101873.16
2022-10-11T03:05:58.235Z,101874.19
2022-10-11T03:06:28.648Z,101874.34
2022-10-11T03:06:59.083Z,101875.03
2022-10-11T03:07:29.526Z,101877.23
2022-10-11T03:07:59.946Z,101879.73
2022-10-11T03:08:30.372Z,101883.41
2022-10-11T03:09:00.794Z,101879.39
2022-10-11T03:09:31.231Z,101883.06
2022-10-11T03:10:01.658Z,101881.75
2022-10-11T03:10:32.080Z,101885.43
2022-10-11T03:11:02.503Z,101885.45
2022-10-11T03:11:32.926Z,101884.77
2022-10-11T03:12:03.351Z,101886.29
2022-10-11T03:12:33.793Z,101885.08
2022-10-11T03:13:04.231Z,101887.47
2022-10-11T03:13:34.667Z,101885.94
2022-10-11T03:14:05.087Z,101889.12
2022-10-11T03:14:35.509Z,101886.61
2022-10-11T03:15:05.934Z,101884.95
2022-10-11T03:15:36.354Z,101889.48
2022-10-11T03:16:06.780Z,101889.34
2022-10-11T03:16:37.235Z,101891.87
2022-10-11T03:17:30.998Z,101890.88
2022-10-11T03:17:43.014Z,101891.23
2022-10-11T03:18:13.435Z,101891.56
2022-10-11T03:18:43.856Z,101889.89
2022-10-11T03:19:18.999Z,101893.91
2022-10-11T03:19:49.641Z,101892.21
2022-10-11T03:20:20.082Z,101894.73
2022-10-11T03:20:50.503Z,101894.89
2022-10-11T03:21:20.927Z,101898.56
2022-10-11T03:21:51.351Z,101899.39
2022-10-11T03:22:21.806Z,101898.56
2022-10-11T03:22:52.242Z,101901.41
2022-10-11T03:23:22.667Z,101902.89
2022-10-11T03:23:53.087Z,101900.36
2022-10-11T03:24:23.517Z,101899.55
2022-10-11T03:24:53.945Z,101900.20
2022-10-11T03:25:24.379Z,101898.68
2022-10-11T03:25:54.802Z,101901.21
2022-10-11T03:26:25.238Z,101899.20
2022-10-11T03:26:55.658Z,101901.06
2022-10-11T03:27:26.083Z,101900.53
2022-10-11T03:27:56.528Z,101904.41
2022-10-11T03:28:27.015Z,101902.73
2022-10-11T03:28:57.458Z,101901.88
2022-10-11T03:29:27.865Z,101905.25
2022-10-11T03:29:58.300Z,101904.06
2022-10-11T03:30:28.726Z,101907.10
2022-10-11T03:30:59.155Z,101907.75
2022-10-11T03:31:29.579Z,101909.97
2022-10-11T03:32:00.004Z,101912.48
2022-10-11T03:32:30.461Z,101914.98
2022-10-11T03:33:00.873Z,101914.30
2022-10-11T03:33:31.309Z,101913.16
2022-10-11T03:34:01.736Z,101919.34
2022-10-11T03:34:32.159Z,101917.68
2022-10-11T03:35:02.578Z,101917.00
2022-10-11T03:35:33.003Z,101917.85
2022-10-11T03:36:03.810Z,101918.51
2022-10-11T03:36:34.435Z,101920.38
2022-10-11T03:37:04.854Z,101915.14
2022-10-11T03:37:35.279Z,101919.52
2022-10-11T03:38:06.421Z,101914.81
2022-10-11T03:38:38.598Z,101921.39
2022-10-11T03:39:09.055Z,101921.88
2022-10-11T03:39:39.453Z,101919.01
2022-10-11T03:40:09.874Z,101923.06
2022-10-11T03:40:40.305Z,101923.07
2022-10-11T03:41:10.728Z,101922.22
2022-10-11T03:41:41.184Z,101921.53
2022-10-11T03:42:11.597Z,101926.24
2022-10-11T03:42:42.030Z,101928.61
2022-10-11T03:43:12.466Z,101925.59
2022-10-11T03:43:42.889Z,101925.59
2022-10-11T03:44:13.310Z,101924.73
2022-10-11T03:44:43.760Z,101923.38
2022-10-11T03:45:14.179Z,101925.40
2022-10-11T03:45:44.612Z,101922.56
2022-10-11T03:46:15.034Z,101926.92
2022-10-11T03:46:45.455Z,101924.39
2022-10-11T03:47:15.886Z,101922.71
2022-10-11T03:47:46.336Z,101927.92
2022-10-11T03:48:16.763Z,101923.22
2022-10-11T03:48:47.193Z,101923.22
2022-10-11T03:49:17.615Z,101923.06
2022-10-11T03:49:48.036Z,101924.75
2022-10-11T03:50:18.457Z,101924.89
2022-10-11T03:50:48.882Z,101925.73
2022-10-11T03:51:19.303Z,101924.38
2022-10-11T03:51:49.739Z,101927.42
2022-10-11T03:52:20.170Z,101925.41
2022-10-11T03:52:50.605Z,101927.09
2022-10-11T03:53:21.043Z,101927.58
2022-10-11T03:53:51.470Z,101927.58
2022-10-11T03:54:21.913Z,101928.59
2022-10-11T03:54:52.339Z,101929.59
2022-10-11T03:55:22.770Z,101926.75
2022-10-11T03:55:53.189Z,101928.92
2022-10-11T03:56:23.623Z,101932.47
2022-10-11T03:56:54.049Z,101929.77
2022-10-11T03:57:24.488Z,101933.64
2022-10-11T03:57:54.903Z,101936.31
2022-10-11T03:58:25.468Z,101929.27
2022-10-11T03:58:55.893Z,101932.12
2022-10-11T03:59:26.317Z,101932.62
2022-10-11T03:59:56.753Z,101932.96
2022-10-11T04:00:27.193Z,101939.35
2022-10-11T04:00:57.600Z,101940.36
2022-10-11T04:01:28.106Z,101937.84
2022-10-11T04:01:58.577Z,101942.70
2022-10-11T04:02:29.016Z,101939.00
2022-10-11T04:02:59.459Z,101942.18
2022-10-11T04:03:29.903Z,101942.04
2022-10-11T04:04:00.333Z,101940.02
2022-10-11T04:04:30.755Z,101943.88
2022-10-11T04:05:01.181Z,101945.39
2022-10-11T04:05:31.608Z,101949.08
2022-10-11T04:06:02.453Z,101947.77
2022-10-11T04:06:33.043Z,101944.05
2022-10-11T04:07:03.464Z,101944.04
2022-10-11T04:07:33.888Z,101942.38
2022-10-11T04:08:07.371Z,101942.55
2022-10-11T04:08:39.651Z,101945.73
2022-10-11T04:09:10.077Z,101945.23
2022-10-11T04:09:40.495Z,101945.55
2022-10-11T04:10:10.917Z,101942.02
2022-10-11T04:10:41.339Z,101946.41
2022-10-11T04:11:11.782Z,101946.40
2022-10-11T04:11:42.206Z,101948.76
2022-10-11T04:12:12.632Z,101949.25
2022-10-11T04:12:43.054Z,101946.73
2022-10-11T04:13:13.479Z,101947.73
2022-10-11T04:13:43.920Z,101953.95
2022-10-11T04:14:14.352Z,101951.95
2022-10-11T04:14:44.778Z,101951.77
2022-10-11T04:15:15.207Z,101952.80
2022-10-11T04:15:45.630Z,101951.61
2022-10-11T04:16:16.052Z,101956.14
2022-10-11T04:16:46.524Z,101955.30
2022-10-11T04:17:16.912Z,101955.80
2022-10-11T04:17:47.339Z,101955.47
2022-10-11T04:18:17.787Z,101954.14
2022-10-11T04:18:48.218Z,101954.98
2022-10-11T04:19:18.639Z,101958.16
2022-10-11T04:19:49.064Z,101955.32
2022-10-11T04:20:19.494Z,101953.30
2022-10-11T04:20:49.931Z,101957.82
2022-10-11T04:21:20.369Z,101958.02
2022-10-11T04:21:50.790Z,101960.36
2022-10-11T04:22:21.218Z,101957.84
2022-10-11T04:22:51.635Z,101959.66
2022-10-11T04:23:22.054Z,101958.16
2022-10-11T04:23:52.491Z,101959.50
2022-10-11T04:24:22.921Z,101958.82
2022-10-11T04:24:53.342Z,101961.53
2022-10-11T04:25:23.767Z,101964.70
2022-10-11T04:25:54.188Z,101966.41
2022-10-11T04:26:24.611Z,101964.38
2022-10-11T04:26:55.043Z,101961.87
2022-10-11T04:27:25.471Z,101964.70
2022-10-11T04:27:55.892Z,101966.23
2022-10-11T04:28:26.388Z,101963.38
2022-10-11T04:28:56.841Z,101965.38
2022-10-11T04:29:32.193Z,101967.08
2022-10-11T04:30:02.554Z,101966.73
2022-10-11T04:30:32.980Z,101968.42
2022-10-11T04:31:03.415Z,101966.73
2022-10-11T04:31:33.843Z,101971.95
2022-10-11T04:32:04.267Z,101970.94
2022-10-11T04:32:34.689Z,101973.80
2022-10-11T04:33:05.112Z,101970.77
2022-10-11T04:33:35.560Z,101970.27
2022-10-11T04:34:06.000Z,101967.23
2022-10-11T04:34:36.422Z,101971.27
2022-10-11T04:35:06.848Z,101968.09
2022-10-11T04:35:37.279Z,101968.41
2022-10-11T04:36:08.086Z,101972.77
2022-10-11T04:36:38.900Z,101971.10
2022-10-11T04:37:09.328Z,101972.28
2022-10-11T04:37:39.745Z,101976.50
2022-10-11T04:38:10.171Z,101975.80
2022-10-11T04:38:40.595Z,101974.81
2022-10-11T04:39:11.039Z,101976.66
2022-10-11T04:39:41.463Z,101976.30
2022-10-11T04:40:11.886Z,101977.98
2022-10-11T04:40:42.323Z,101979.84
2022-10-11T04:41:12.744Z,101977.16
2022-10-11T04:41:43.186Z,101980.84
2022-10-11T04:42:13.622Z,101978.35
2022-10-11T04:42:44.060Z,101979.85
2022-10-11T04:43:14.505Z,101978.34
2022-10-11T04:43:44.929Z,101980.20
2022-10-11T04:44:15.367Z,101979.86
2022-10-11T04:44:45.809Z,101979.70
2022-10-11T04:45:16.239Z,101981.53
2022-10-11T04:45:46.662Z,101981.36
2022-10-11T04:46:17.096Z,101979.34
2022-10-11T04:46:47.519Z,101982.36
2022-10-11T04:47:17.945Z,101983.19
2022-10-11T04:47:48.380Z,101984.02
2022-10-11T04:48:18.808Z,101984.88
2022-10-11T04:48:49.255Z,101986.57
2022-10-11T04:49:19.676Z,101983.02
2022-10-11T04:49:50.100Z,101989.73
2022-10-11T04:50:20.560Z,101987.23
2022-10-11T04:50:50.976Z,101988.73
2022-10-11T04:51:21.398Z,101992.94
2022-10-11T04:51:51.829Z,101992.28
2022-10-11T04:52:25.685Z,101992.78
2022-10-11T04:52:56.335Z,101993.29
2022-10-11T04:53:26.755Z,101998.98
2022-10-11T04:53:57.181Z,101999.48
2022-10-11T04:54:27.661Z,102004.69
2022-10-11T04:54:58.094Z,101998.98
2022-10-11T04:55:28.514Z,101998.31
2022-10-11T04:55:58.941Z,102000.85
2022-10-11T04:56:29.365Z,102001.69
2022-10-11T04:56:59.793Z,102001.69
2022-10-11T04:57:30.223Z,101999.49
2022-10-11T04:58:00.653Z,101995.30
2022-10-11T04:58:31.074Z,102001.00
2022-10-11T04:59:01.512Z,101999.66
2022-10-11T04:59:31.943Z,102002.86
2022-10-11T05:00:02.362Z,102004.19
2022-10-11T05:00:32.782Z,101996.64
2022-10-11T05:01:03.211Z,102002.02
2022-10-11T05:01:33.701Z,102003.53
2022-10-11T05:02:04.128Z,102001.02
2022-10-11T05:02:34.547Z,102001.34
2022-10-11T05:03:04.934Z,102001.00
2022-10-11T05:03:35.370Z,102001.88
2022-10-11T05:04:05.816Z,101999.34
2022-10-11T05:04:36.400Z,102002.70
2022-10-11T05:05:06.827Z,102002.88
2022-10-11T05:05:37.253Z,102004.89
2022-10-11T05:06:08.107Z,102005.88
2022-10-11T05:06:38.620Z,102007.23
2022-10-11T05:07:09.043Z,102007.04
2022-10-11T05:07:39.469Z,102006.73
2022-10-11T05:08:09.902Z,102008.23
2022-10-11T05:08:40.327Z,102008.05
2022-10-11T05:09:10.751Z,102010.08
2022-10-11T05:09:41.208Z,102009.23
2022-10-11T05:10:11.629Z,102008.05
2022-10-11T05:10:42.050Z,102012.95
2022-10-11T05:11:15.538Z,102012.27
2022-10-11T05:11:46.252Z,102010.58
2022-10-11T05:12:16.682Z,102013.28
2022-10-11T05:12:47.128Z,102013.45
2022-10-11T05:13:17.555Z,102014.62
2022-10-11T05:13:47.974Z,102016.97
2022-10-11T05:14:18.394Z,102014.45
2022-10-11T05:14:48.833Z,102018.83
2022-10-11T05:15:19.307Z,102016.97
2022-10-11T05:15:49.732Z,102017.15
2022-10-11T05:16:20.154Z,102015.61
2022-10-11T05:16:50.578Z,102016.78
2022-10-11T05:17:21.003Z,102017.97
2022-10-11T05:17:51.441Z,102021.52
2022-10-11T05:18:21.866Z,102020.84
2022-10-11T05:18:52.289Z,102018.82
2022-10-11T05:19:22.730Z,102023.51
2022-10-11T05:19:53.165Z,102022.36
2022-10-11T05:20:23.586Z,102019.16
2022-10-11T05:20:54.028Z,102021.02
2022-10-11T05:21:24.450Z,102026.20
2022-10-11T05:21:54.875Z,102025.39
2022-10-11T05:22:25.298Z,102022.20
2022-10-11T05:22:55.720Z,102026.88
2022-10-11T05:23:26.140Z,102024.18
2022-10-11T05:23:56.562Z,102024.19
2022-10-11T05:24:27.002Z,102026.55
2022-10-11T05:24:57.440Z,102026.70
2022-10-11T05:25:27.870Z,102030.05
2022-10-11T05:25:58.292Z,102030.39
2022-10-11T05:26:28.719Z,102026.05
2022-10-11T05:27:03.126Z,102029.91
2022-10-11T05:27:33.804Z,102031.25
2022-10-11T05:28:04.231Z,102031.10
2022-10-11T05:28:34.801Z,102034.95
2022-10-11T05:29:05.198Z,102035.45
2022-10-11T05:29:35.618Z,102034.78
2022-10-11T05:30:06.071Z,102031.41
2022-10-11T05:30:36.496Z,102034.79
2022-10-11T05:31:06.920Z,102031.59
2022-10-11T05:31:37.357Z,102035.09
2022-10-11T05:32:07.775Z,102035.94
2022-10-11T05:32:38.187Z,102033.58
2022-10-11T05:33:08.612Z,102033.61
2022-10-11T05:33:39.048Z,102032.44
2022-10-11T05:34:09.480Z,102036.27
2022-10-11T05:34:39.920Z,102034.44
2022-10-11T05:35:10.350Z,102036.27
2022-10-11T05:35:40.825Z,102038.80
2022-10-11T05:36:11.257Z,102037.95
2022-10-11T05:36:41.674Z,102040.16
2022-10-11T05:37:12.101Z,102040.66
2022-10-11T05:37:42.520Z,102043.19
2022-10-11T05:38:12.943Z,102039.16
2022-10-11T05:38:43.376Z,102041.66
2022-10-11T05:39:13.796Z,102042.99
2022-10-11T05:39:44.220Z,102043.50
2022-10-11T05:40:14.672Z,102046.02
2022-10-11T05:40:45.093Z,102048.53
2022-10-11T05:41:15.513Z,102048.38
2022-10-11T05:41:45.936Z,102048.20
2022-10-11T05:42:16.363Z,102051.56
2022-10-11T05:42:46.800Z,102044.86
2022-10-11T05:43:17.228Z,102054.25
2022-10-11T05:43:47.650Z,102055.09
2022-10-11T05:44:18.072Z,102051.23
2022-10-11T05:44:48.494Z,102056.94
2022-10-11T05:45:18.935Z,102055.45
2022-10-11T05:45:49.372Z,102061.83
2022-10-11T05:46:19.796Z,102057.28
2022-10-11T05:46:50.224Z,102061.47
2022-10-11T05:47:20.656Z,102059.47
2022-10-11T05:47:51.092Z,102059.80